首页
METAR-TAF:

METAR-TAF

机场 :

阿尔伯特, 法国

纬度: 49-58-21N, 经度: 002-41-29E, 海拔: 111米

当前天气观测

该预报发布于17分钟前的04:00 UTC
风速4节,风向北转西北
温度 7°C
湿度 93%
气压 1033 hPa
能见度10公里或以上

METAR: LFAQ 260400Z AUTO 33004KT 9999 FEW049/// OVC086/// ///TCU 07/06 Q1033

时间: 05:17 (04:17 UTC)

预报

该预报发布于14小时和17分钟前的14:00 UTC
预报有效从25日的 15点(UTC)到 25日的 24点(UTC)
风速7节,风向西转西北
能见度10公里或以上
1500米以下无云,无积雨云
短暂存在
从 25日的 17点(UTC)到 25日的 24点(UTC)
能見度: 4000
阴天层高于800英尺
几率 40% :
短暂存在
从 25日的 19点(UTC)到 25日的 24点(UTC)
阴天层高于300英尺

TAF: LFAQ 251400Z 2515/2524 30007KT CAVOK TEMPO 2517/2524 4000 RA OVC008 PROB40 TEMPO 2519/2524 OVC003

超过4000个机场的气象观测和天气预报(METAR&TAF报告)。

可查询的气象台以黄色和红色小点在地图上表示。

将鼠标移到小点上方,可查看气象台名称。

然后点击查看天气观测和预报。

如需切换地图:点击带黑十字的绿色按钮放大地图;点击带横线的绿色按钮缩小地图;或者点击绿色箭头查看邻近地区的地图。


METAR-TAF: